Sariyer, Turkey

8:48 AM EEST on August 01, 2015 (GMT +0300)
IISTANBU28 | | Change Station
CLOSE
Current Station
Personal Weather Station
Location: Istinye, Istanbul
Elevation: 345 ft
Nearby Weather Stations

Elev 345 ft 41.11 °N, 29.04 °E | Updated 2 minutes ago

Partly Cloudy
Partly Cloudy
78.5 °F
Feels Like 81 °F
N
9.0
Wind Variable Wind from North
Gusts 20.0 mph

Today
High -- | Low -- °F
--% Chance of Precip.
Yesterday
High -- | Low -- °F
Precip. -- in
5:58 AM 8:20 PM
Full, 99% visible
Pressure 29.92 in
Visibility 6.2 miles
Clouds Few 2100 ft
Heat Index 81 °F
Dew Point 74 °F
Humidity 85%
Rainfall -999.00 in
Snow Depth Not available.
UV 1.1 out of 12
Pollen Not available.
Air Quality Not available.
Flu Activity Not available.
METAR LTBA 010520Z VRB11KT 9999 FEW021 28/21 Q1013 NOSIG

More Conditions Fewer Conditions

Pressure 29.92 in
Visibility 6.2 miles
Clouds Few 2100 ft
Heat Index 81 °F
Dew Point 74 °F
Humidity 85%
Rainfall -999.00 in
Snow Depth Not available.
UV 1.1 out of 12
Pollen Not available.
Air Quality Not available.
Flu Activity Not available.
METAR LTBA 010520Z VRB11KT 9999 FEW021 28/21 Q1013 NOSIG

More Conditions Fewer Conditions

10-Day Weather Forecast

×

Almanac

Astronomy

Aug. 01, 2015 Rise Set
Actual Time
Civil Twilight
Nautical Twilight
Astronomical Twilight
Moon
Length of Visible Light
Length of Day
Tomorrow will be .
, % of the Moon is Illuminated

Today's Extremes

Country Highs Country Lows

Community

WunderPhotos

Upload Photos

1,842,887 photos uploaded!

WunderBlogs® & News

Nearby

Air Quality

  Air Quality AQ Index Pollutant
Not available.

Snow Depth

Station Depth Elevation

Earthquake Activity

City Distance Mag. Time & Date
Minimum magnitude displayed is 2.5.

Coastal Water Temperatures

Place Temperature

Stations

Nearby Weather Stations

Station Location Temp. Windchill Dew Point Humidity Wind Precip. Elev Updated Type